TimePST,TemperatureF,Dew PointF,Humidity,Sea Level PressureIn,VisibilityMPH,Wind Direction,Wind SpeedMPH,Gust SpeedMPH,PrecipitationIn,Events,Conditions,WindDirDegrees,DateUTC
12:53 AM,30.0,26.1,85,30.32,10.0,West,3.5,-,N/A,,Clear,280,2012-11-22 08:53:00
1:53 AM,28.9,25.0,85,30.35,10.0,West,5.8,-,N/A,,Clear,270,2012-11-22 09:53:00
2:53 AM,30.0,26.1,85,30.37,10.0,West,8.1,-,N/A,,Clear,260,2012-11-22 10:53:00
3:53 AM,30.9,26.1,82,30.37,10.0,NW,4.6,-,N/A,,Clear,310,2012-11-22 11:53:00
4:53 AM,30.9,26.1,82,30.39,10.0,SSW,3.5,-,N/A,,Clear,210,2012-11-22 12:53:00
5:53 AM,32.0,26.1,79,30.40,10.0,North,3.5,-,N/A,,Clear,350,2012-11-22 13:53:00
6:53 AM,32.0,27.0,82,30.42,10.0,Calm,Calm,-,N/A,,Clear,0,2012-11-22 14:53:00
7:53 AM,30.9,27.0,85,30.45,10.0,West,3.5,-,N/A,,Clear,260,2012-11-22 15:53:00
8:53 AM,35.1,28.9,78,30.44,10.0,Calm,Calm,-,N/A,,Partly Cloudy,0,2012-11-22 16:53:00
9:53 AM,39.0,30.0,70,30.46,10.0,Calm,Calm,-,N/A,,Partly Cloudy,0,2012-11-22 17:53:00
10:53 AM,41.0,30.0,65,30.45,10.0,Calm,Calm,-,N/A,,Mostly Cloudy,0,2012-11-22 18:53:00
11:53 AM,42.1,28.9,60,30.44,10.0,Calm,Calm,-,N/A,,Clear,0,2012-11-22 19:53:00
12:53 PM,45.0,28.9,53,30.43,10.0,Calm,Calm,-,N/A,,Clear,0,2012-11-22 20:53:00
1:53 PM,45.0,28.9,53,30.42,10.0,Calm,Calm,-,N/A,,Clear,0,2012-11-22 21:53:00
2:53 PM,45.0,30.0,56,30.43,10.0,Calm,Calm,-,N/A,,Partly Cloudy,0,2012-11-22 22:53:00
3:53 PM,44.1,30.0,58,30.43,10.0,Calm,Calm,-,N/A,,Scattered Clouds,0,2012-11-22 23:53:00
4:53 PM,39.0,30.9,73,30.43,10.0,Calm,Calm,-,N/A,,Partly Cloudy,0,2012-11-23 00:53:00
5:53 PM,35.1,28.9,78,30.43,10.0,WNW,5.8,-,N/A,,Partly Cloudy,300,2012-11-23 01:53:00
6:53 PM,35.1,28.9,78,30.43,10.0,Calm,Calm,-,N/A,,Partly Cloudy,0,2012-11-23 02:53:00
7:53 PM,33.1,28.9,85,30.43,10.0,West,5.8,-,N/A,,Clear,270,2012-11-23 03:53:00
8:53 PM,33.1,28.9,85,30.41,10.0,West,5.8,-,N/A,,Clear,280,2012-11-23 04:53:00
9:53 PM,35.1,30.0,82,30.39,10.0,West,5.8,-,N/A,,Clear,260,2012-11-23 05:53:00
10:53 PM,35.1,30.0,82,30.38,10.0,WNW,4.6,-,N/A,,Clear,290,2012-11-23 06:53:00
11:53 PM,35.1,30.0,82,30.38,10.0,Calm,Calm,-,N/A,,Partly Cloudy,0,2012-11-23 07:53:00